2022年8月11日

时间 代码 天气 温度 能见度 天花板 METAR/SPECI
2:04 下午
V
79 °F 9 mi - Var Var 18 - 26 kt METAR CYTZ 111804Z AUTO VRB18G26KT 9SM SCT060 26/11 A3001 RMK SLP162 DENSITY ALT 1500FT
1:00 下午
V
79 °F 9 mi - 330° 330° 15 - 25 kt METAR CYTZ 111700Z AUTO 33015G25KT 300V020 9SM CLR 26/11 A3001 RMK SLP162 DENSITY ALT 1500FT
12:00 下午
V
77 °F 9 mi - 330° 330° 15 - 22 kt METAR CYTZ 111600Z AUTO 33015G22KT 9SM FEW050 SCT055 25/13 A3001 RMK SLP163 DENSITY ALT 1400FT
11:00 上午
V
73 °F 9 mi - 330° 330° 13 - 25 kt METAR CYTZ 111500Z AUTO 33013G25KT 9SM CLR 23/15 A3001 RMK SLP162 DENSITY ALT 1200FT
10:00 上午
V
72 °F 9 mi - 320° 320° 15 - 23 kt METAR CYTZ 111400Z AUTO 32015G23KT 310V020 9SM CLR 22/16 A2999 RMK SLP158 DENSITY ALT 1100FT
9:00 上午
V
70 °F 9 mi - 320° 320° 15 - 21 kt METAR CYTZ 111300Z AUTO 32015G21KT 9SM CLR 21/15 A2998 RMK SLP152 DENSITY ALT 1000FT
8:00 上午
V
68 °F 9 mi - 320° 320° 13 - 20 kt METAR CYTZ 111200Z AUTO 32013G20KT 9SM CLR 20/14 A2997 RMK SLP151 DENSITY ALT 800FT
7:00 上午
V
66 °F 9 mi - 320° 320° 8 - 19 kt METAR CYTZ 111100Z AUTO 32008G19KT 280V340 9SM CLR 19/13 A2996 RMK SLP148 DENSITY ALT 700FT
6:00 上午
V
68 °F 9 mi - 310° 310° 15 kt METAR CYTZ 111000Z AUTO 31015KT 9SM CLR 20/12 A2995 RMK SLP144 DENSITY ALT 900FT
5:00 上午
V
72 °F 9 mi - 310° 310° 13 - 20 kt METAR CYTZ 110900Z AUTO 31013G20KT 9SM FEW076 SCT090 SCT230 22/12 A2994 RMK SLP141 DENSITY ALT 1100FT
4:00 上午
V
72 °F 9 mi 7.100 ft 280° 280° 8 kt METAR CYTZ 110800Z AUTO 28008KT 9SM OVC071 22/15 A2995 RMK SLP145 DENSITY ALT 1100FT
3:00 上午
V
68 °F 9 mi 8.300 ft 250° 250° 5 kt METAR CYTZ 110700Z AUTO 25005KT 220V290 9SM FEW071 BKN083 20/18 A2996 RMK SLP147 DENSITY ALT 900FT
2:00 上午
V
68 °F 9 mi 5.500 ft 260° 260° 7 kt METAR CYTZ 110600Z AUTO 26007KT 200V280 9SM BKN055 20/17 A2997 RMK SLP151 DENSITY ALT 900FT
1:00 上午
V
68 °F 9 mi - 250° 250° 5 kt METAR CYTZ 110500Z AUTO 25005KT 220V290 9SM CLR 20/17 A2998 RMK SLP154 DENSITY ALT 900FT
12:00 上午
V
68 °F 9 mi - 270° 270° 6 kt METAR CYTZ 110400Z AUTO 27006KT 230V300 9SM CLR 20/17 A2999 RMK SLP158 DENSITY ALT 900FT

2022年8月10日

时间 代码 天气 温度 能见度 天花板 METAR/SPECI
11:00 下午
V
68 °F 9 mi - 230° 230° 3 kt METAR CYTZ 110300Z AUTO 23003KT 220V310 9SM CLR 20/18 A2999 RMK SLP156 DENSITY ALT 800FT
8:00 上午
V
68 °F 9 mi - Var Var 2 kt METAR CYTZ 101200Z AUTO VRB02KT 9SM CLR 20/16 A3011 RMK SLP199 DENSITY ALT 700FT
7:00 上午
V
64 °F 9 mi - 230° 230° 5 kt METAR CYTZ 101100Z AUTO 23005KT 9SM CLR 18/16 A3010 RMK SLP195 DENSITY ALT 500FT
6:00 上午
V
63 °F 9 mi - Var 000° 0 kt METAR CYTZ 101000Z AUTO 00000KT 9SM CLR 17/15 A3009 RMK SLP192 DENSITY ALT 400FT
5:00 上午
V
63 °F 9 mi - 260° 260° 4 kt METAR CYTZ 100900Z AUTO 26004KT 220V350 9SM CLR 17/15 A3009 RMK SLP192 DENSITY ALT 400FT
4:00 上午
V
63 °F 9 mi - 230° 230° 3 kt METAR CYTZ 100800Z AUTO 23003KT 9SM CLR 17/15 A3009 RMK SLP193 DENSITY ALT 400FT
3:00 上午
V
66 °F 9 mi - Var 000° 0 kt METAR CYTZ 100700Z AUTO 00000KT 9SM CLR 19/15 A3009 RMK SLP192 DENSITY ALT 600FT
2:00 上午
V
64 °F 9 mi - 100° 100° 2 kt METAR CYTZ 100600Z AUTO 10002KT 9SM FEW037 18/15 A3009 RMK SLP193 DENSITY ALT 500FT
1:00 上午
V
68 °F 9 mi 3.700 ft Var 000° 0 kt METAR CYTZ 100500Z AUTO 00000KT 9SM BKN037 OVC047 20/15 A3009 RMK SLP192 DENSITY ALT 700FT
12:00 上午
V
68 °F 9 mi 5.000 ft 050° 050° 7 kt METAR CYTZ 100400Z AUTO 05007KT 9SM BKN050 20/15 A3008 RMK SLP187 DENSITY ALT 800FT

2022年8月9日

时间 代码 天气 温度 能见度 天花板 METAR/SPECI
11:00 下午
V
68 °F 9 mi 4.800 ft 070° 070° 8 kt METAR CYTZ 100300Z AUTO 07008KT 9SM BKN048 20/15 A3007 RMK SLP184 DENSITY ALT 800FT
10:00 下午
V
70 °F 9 mi 3.300 ft 100° 100° 6 kt METAR CYTZ 100200Z AUTO 10006KT 060V150 9SM BKN033 OVC048 21/16 A3006 RMK SLP181 DENSITY ALT 800FT
9:00 下午
V
68 °F 9 mi 5.000 ft Var 000° 0 kt METAR CYTZ 100100Z AUTO 00000KT 9SM FEW040 BKN050 20/16 A3005 RMK SLP179 DENSITY ALT 800FT
8:00 下午
V
70 °F 9 mi 4.800 ft 180° 180° 4 kt METAR CYTZ 100000Z AUTO 18004KT 9SM OVC048 21/16 A3004 RMK SLP176 DENSITY ALT 900FT
7:00 下午
V
70 °F 9 mi 5.000 ft 190° 190° 6 kt METAR CYTZ 092300Z AUTO 19006KT 180V240 9SM FEW038 OVC050 21/15 A3003 RMK SLP171 DENSITY ALT 900FT
6:00 下午
V
73 °F 9 mi 5.000 ft 320° 320° 7 - 15 kt METAR CYTZ 092200Z AUTO 32007G15KT 280V040 9SM OVC050 23/14 A3003 RMK SLP170 DENSITY ALT 1100FT
5:00 下午
V
73 °F 9 mi 3.700 ft 340° 340° 6 kt METAR CYTZ 092100Z AUTO 34006KT 290V030 9SM BKN037 OVC055 23/15 A3003 RMK SLP169 DENSITY ALT 1100FT
4:00 下午
V
72 °F 9 mi 4.700 ft 360° 360° 9 - 19 kt METAR CYTZ 092000Z AUTO 36009G19KT 290V050 9SM OVC047 22/14 A3003 RMK SLP170 DENSITY ALT 1100FT
3:00 下午
V
72 °F 9 mi 4.100 ft 320° 320° 7 kt METAR CYTZ 091900Z AUTO 32007KT 290V010 9SM OVC041 22/14 A3003 RMK SLP171 DENSITY ALT 1000FT
2:00 下午
V
72 °F 9 mi 3.900 ft 330° 330° 5 kt METAR CYTZ 091800Z AUTO 33005KT 270V020 9SM OVC039 22/14 A3003 RMK SLP171 DENSITY ALT 1000FT
1:00 下午
V
70 °F 9 mi 3.400 ft 320° 320° 13 - 19 kt METAR CYTZ 091700Z AUTO 32013G19KT 290V350 9SM OVC034 21/14 A3003 RMK SLP171 DENSITY ALT 900FT
12:00 下午
V
70 °F 9 mi 3.800 ft 330° 330° 11 - 21 kt METAR CYTZ 091600Z AUTO 33011G21KT 9SM FEW030 OVC038 21/15 A3003 RMK SLP169 DENSITY ALT 900FT
11:00 上午
M
68 °F 9 mi 2.800 ft 320° 320° 7 - 17 kt METAR CYTZ 091500Z AUTO 32007G17KT 270V350 9SM BKN028 OVC036 20/15 A3003 RMK SLP169 DENSITY ALT 800FT
较旧的数据

我们和第三方通过cookies跟踪您在我们网站上的上网行为。如果您继续,我们认为您同意我们的cookie政策。 了解更多